sensor_id;sensor_type;location;lat;lon;timestamp;pressure;altitude;pressure_sealevel;temperature;humidity
37298;BME280;30517;51.932;4.278;2023-09-19T00:00:57;100732.34;;;19.50;55.47
37298;BME280;30517;51.932;4.278;2023-09-19T00:03:58;100685.44;;;19.19;54.95
37298;BME280;30517;51.932;4.278;2023-09-19T00:06:59;100646.91;;;19.02;55.49
37298;BME280;30517;51.932;4.278;2023-09-19T00:10:03;100610.47;;;18.78;55.22
37298;BME280;30517;51.932;4.278;2023-09-19T00:13:04;100664.78;;;19.00;55.41
37298;BME280;30517;51.932;4.278;2023-09-19T00:16:09;100728.06;;;19.23;55.52
37298;BME280;30517;51.932;4.278;2023-09-19T00:19:14;100764.47;;;19.50;55.19
37298;BME280;30517;51.932;4.278;2023-09-19T00:22:16;100711.78;;;19.06;55.18
37298;BME280;30517;51.932;4.278;2023-09-19T00:25:20;100753.41;;;19.13;55.69
37298;BME280;30517;51.932;4.278;2023-09-19T00:28:21;100601.03;;;18.22;55.39
37298;BME280;30517;51.932;4.278;2023-09-19T00:31:21;100761.19;;;19.19;55.38
37298;BME280;30517;51.932;4.278;2023-09-19T00:34:23;100719.75;;;19.08;54.61
37298;BME280;30517;51.932;4.278;2023-09-19T00:37:24;100769.03;;;19.24;55.74
37298;BME280;30517;51.932;4.278;2023-09-19T00:40:25;100728.03;;;19.01;55.50
37298;BME280;30517;51.932;4.278;2023-09-19T00:43:26;100689.41;;;18.87;55.07
37298;BME280;30517;51.932;4.278;2023-09-19T00:46:28;100763.56;;;19.27;54.97
37298;BME280;30517;51.932;4.278;2023-09-19T00:49:29;100559.78;;;18.07;55.56
37298;BME280;30517;51.932;4.278;2023-09-19T00:52:30;100745.13;;;19.19;55.44
37298;BME280;30517;51.932;4.278;2023-09-19T00:55:32;100752.53;;;19.13;55.46
37298;BME280;30517;51.932;4.278;2023-09-19T00:58:34;100723.81;;;18.96;55.10
37298;BME280;30517;51.932;4.278;2023-09-19T01:01:35;100726.47;;;18.96;55.27
37298;BME280;30517;51.932;4.278;2023-09-19T01:04:42;100738.59;;;19.05;55.30
37298;BME280;30517;51.932;4.278;2023-09-19T01:07:43;100775.78;;;19.11;55.42
37298;BME280;30517;51.932;4.278;2023-09-19T01:11:20;100778.47;;;19.11;55.00
37298;BME280;30517;51.932;4.278;2023-09-19T01:14:30;100775.78;;;19.11;55.91
37298;BME280;30517;51.932;4.278;2023-09-19T01:17:46;100771.13;;;19.16;55.09
37298;BME280;30517;51.932;4.278;2023-09-19T01:28:18;100705.59;;;18.58;55.43
37298;BME280;30517;51.932;4.278;2023-09-19T01:31:24;100783.94;;;19.08;55.37
37298;BME280;30517;51.932;4.278;2023-09-19T01:34:48;100795.72;;;19.02;55.37
37298;BME280;30517;51.932;4.278;2023-09-19T01:37:50;100790.25;;;19.05;55.20
37298;BME280;30517;51.932;4.278;2023-09-19T01:41:03;100708.38;;;18.55;55.22
37298;BME280;30517;51.932;4.278;2023-09-19T01:44:15;100756.09;;;18.90;55.28
37298;BME280;30517;51.932;4.278;2023-09-19T01:47:34;100783.56;;;19.17;54.68
37298;BME280;30517;51.932;4.278;2023-09-19T01:50:44;100679.47;;;18.43;54.87
37298;BME280;30517;51.932;4.278;2023-09-19T01:54:00;100757.78;;;18.92;55.54
37298;BME280;30517;51.932;4.278;2023-09-19T01:57:16;100703.03;;;18.55;55.13
37298;BME280;30517;51.932;4.278;2023-09-19T02:00:18;100733.25;;;18.81;54.67
37298;BME280;30517;51.932;4.278;2023-09-19T02:03:22;100763.81;;;18.97;54.71
37298;BME280;30517;51.932;4.278;2023-09-19T02:06:23;100766.97;;;18.85;55.38
37298;BME280;30517;51.932;4.278;2023-09-19T02:09:27;100697.44;;;18.38;55.70
37298;BME280;30517;51.932;4.278;2023-09-19T02:12:27;100710.00;;;18.60;55.39
37298;BME280;30517;51.932;4.278;2023-09-19T02:15:28;100648.31;;;18.19;54.91
37298;BME280;30517;51.932;4.278;2023-09-19T02:18:32;100792.81;;;19.08;54.90
37298;BME280;30517;51.932;4.278;2023-09-19T02:21:36;100732.81;;;18.68;55.69
37298;BME280;30517;51.932;4.278;2023-09-19T02:24:40;100784.06;;;19.05;55.05
37298;BME280;30517;51.932;4.278;2023-09-19T02:27:41;100756.00;;;18.68;55.36
37298;BME280;30517;51.932;4.278;2023-09-19T02:30:42;100799.38;;;18.99;54.85
37298;BME280;30517;51.932;4.278;2023-09-19T02:33:42;100790.63;;;18.96;55.19
37298;BME280;30517;51.932;4.278;2023-09-19T02:36:43;100658.22;;;17.91;54.85
37298;BME280;30517;51.932;4.278;2023-09-19T02:39:45;100802.31;;;18.93;54.89
37298;BME280;30517;51.932;4.278;2023-09-19T02:42:46;100643.88;;;17.94;55.11
37298;BME280;30517;51.932;4.278;2023-09-19T02:45:49;100802.00;;;18.77;55.73
37298;BME280;30517;51.932;4.278;2023-09-19T02:48:50;100773.19;;;18.61;56.07
37298;BME280;30517;51.932;4.278;2023-09-19T02:51:51;100768.84;;;18.58;55.94
37298;BME280;30517;51.932;4.278;2023-09-19T02:54:52;100789.63;;;18.73;56.13
37298;BME280;30517;51.932;4.278;2023-09-19T02:57:53;100786.88;;;18.76;55.67
37298;BME280;30517;51.932;4.278;2023-09-19T03:00:57;100800.44;;;18.70;55.96
37298;BME280;30517;51.932;4.278;2023-09-19T03:03:58;100770.03;;;18.49;55.75
37298;BME280;30517;51.932;4.278;2023-09-19T03:06:59;100672.97;;;18.02;55.37
37298;BME280;30517;51.932;4.278;2023-09-19T03:10:01;100656.97;;;18.02;54.96
37298;BME280;30517;51.932;4.278;2023-09-19T03:13:03;100731.41;;;18.34;55.45
37298;BME280;30517;51.932;4.278;2023-09-19T03:16:04;100786.09;;;18.74;55.18
37298;BME280;30517;51.932;4.278;2023-09-19T03:19:05;100705.84;;;18.27;55.13
37298;BME280;30517;51.932;4.278;2023-09-19T03:22:07;100779.69;;;18.53;55.89
37298;BME280;30517;51.932;4.278;2023-09-19T03:25:08;100753.97;;;18.51;55.16
37298;BME280;30517;51.932;4.278;2023-09-19T03:28:10;100770.59;;;18.34;55.46
37298;BME280;30517;51.932;4.278;2023-09-19T03:31:11;100753.78;;;18.30;55.66
37298;BME280;30517;51.932;4.278;2023-09-19T03:34:12;100773.75;;;18.45;55.64
37298;BME280;30517;51.932;4.278;2023-09-19T03:37:12;100698.56;;;18.07;55.69
37298;BME280;30517;51.932;4.278;2023-09-19T03:40:13;100769.31;;;18.44;55.36
37298;BME280;30517;51.932;4.278;2023-09-19T03:43:16;100734.28;;;18.03;55.96
37298;BME280;30517;51.932;4.278;2023-09-19T03:46:17;100811.38;;;18.39;56.89
37298;BME280;30517;51.932;4.278;2023-09-19T03:49:18;100761.75;;;18.07;56.43
37298;BME280;30517;51.932;4.278;2023-09-19T03:52:19;100736.41;;;17.94;56.33
37298;BME280;30517;51.932;4.278;2023-09-19T03:55:20;100824.50;;;18.45;56.54
37298;BME280;30517;51.932;4.278;2023-09-19T03:58:21;100781.81;;;18.19;56.84
37298;BME280;30517;51.932;4.278;2023-09-19T04:01:21;100809.81;;;18.32;56.89
37298;BME280;30517;51.932;4.278;2023-09-19T04:04:22;100810.38;;;18.42;56.67
37298;BME280;30517;51.932;4.278;2023-09-19T04:07:25;100785.94;;;18.27;56.10
37298;BME280;30517;51.932;4.278;2023-09-19T04:10:29;100831.84;;;18.64;55.70
37298;BME280;30517;51.932;4.278;2023-09-19T04:13:30;100836.66;;;18.54;55.97
37298;BME280;30517;51.932;4.278;2023-09-19T04:16:30;100721.75;;;17.52;56.04
37298;BME280;30517;51.932;4.278;2023-09-19T04:19:31;100762.06;;;17.98;54.04
37298;BME280;30517;51.932;4.278;2023-09-19T04:22:32;100804.00;;;18.21;54.36
37298;BME280;30517;51.932;4.278;2023-09-19T04:25:33;100743.25;;;18.01;53.95
37298;BME280;30517;51.932;4.278;2023-09-19T04:28:34;100843.41;;;18.64;53.75
37298;BME280;30517;51.932;4.278;2023-09-19T04:31:38;100808.34;;;18.48;53.63
37298;BME280;30517;51.932;4.278;2023-09-19T04:34:41;100753.78;;;18.05;53.89
37298;BME280;30517;51.932;4.278;2023-09-19T04:37:42;100511.13;;;16.46;54.27
37298;BME280;30517;51.932;4.278;2023-09-19T04:40:43;100846.09;;;18.12;54.57
37298;BME280;30517;51.932;4.278;2023-09-19T04:43:43;100747.56;;;17.80;54.35
37298;BME280;30517;51.932;4.278;2023-09-19T04:46:44;100829.97;;;18.41;53.81
37298;BME280;30517;51.932;4.278;2023-09-19T04:49:48;100843.56;;;18.60;53.77
37298;BME280;30517;51.932;4.278;2023-09-19T04:52:50;100816.25;;;18.26;54.52
37298;BME280;30517;51.932;4.278;2023-09-19T04:55:51;100822.09;;;18.11;55.07
37298;BME280;30517;51.932;4.278;2023-09-19T04:58:56;100863.72;;;18.43;54.46
37298;BME280;30517;51.932;4.278;2023-09-19T05:01:58;100803.31;;;18.14;54.82
37298;BME280;30517;51.932;4.278;2023-09-19T05:04:59;100849.13;;;18.28;54.95
37298;BME280;30517;51.932;4.278;2023-09-19T05:08:00;100847.59;;;18.20;55.69
37298;BME280;30517;51.932;4.278;2023-09-19T05:11:05;100809.34;;;17.94;55.38
37298;BME280;30517;51.932;4.278;2023-09-19T05:14:06;100842.22;;;18.21;55.90
37298;BME280;30517;51.932;4.278;2023-09-19T05:17:06;100824.63;;;18.16;55.18
37298;BME280;30517;51.932;4.278;2023-09-19T05:20:08;100823.63;;;17.93;56.32
37298;BME280;30517;51.932;4.278;2023-09-19T05:23:15;100726.09;;;17.28;56.60
37298;BME280;30517;51.932;4.278;2023-09-19T05:26:16;100794.81;;;17.75;56.49
37298;BME280;30517;51.932;4.278;2023-09-19T05:29:18;100833.66;;;18.11;56.42
37298;BME280;30517;51.932;4.278;2023-09-19T05:32:19;100834.47;;;18.13;56.57
37298;BME280;30517;51.932;4.278;2023-09-19T05:35:20;100804.88;;;17.95;56.44
37298;BME280;30517;51.932;4.278;2023-09-19T05:38:21;100794.28;;;17.91;56.52
37298;BME280;30517;51.932;4.278;2023-09-19T05:41:23;100854.81;;;18.18;56.34
37298;BME280;30517;51.932;4.278;2023-09-19T05:44:23;100859.22;;;18.19;56.39
37298;BME280;30517;51.932;4.278;2023-09-19T05:47:24;100864.56;;;18.19;56.43
37298;BME280;30517;51.932;4.278;2023-09-19T05:50:25;100816.72;;;17.86;56.56
37298;BME280;30517;51.932;4.278;2023-09-19T05:53:26;100861.91;;;18.19;56.52
37298;BME280;30517;51.932;4.278;2023-09-19T05:56:27;100876.19;;;18.18;56.64
37298;BME280;30517;51.932;4.278;2023-09-19T05:59:28;100838.59;;;17.97;56.49
37298;BME280;30517;51.932;4.278;2023-09-19T06:02:28;100853.59;;;18.01;56.56
37298;BME280;30517;51.932;4.278;2023-09-19T06:05:30;100851.72;;;18.03;56.70
37298;BME280;30517;51.932;4.278;2023-09-19T06:08:35;100835.59;;;17.80;56.71
37298;BME280;30517;51.932;4.278;2023-09-19T06:11:36;100826.00;;;17.73;56.92
37298;BME280;30517;51.932;4.278;2023-09-19T06:14:37;100877.88;;;18.20;56.62
37298;BME280;30517;51.932;4.278;2023-09-19T06:17:38;100894.69;;;18.22;56.53
37298;BME280;30517;51.932;4.278;2023-09-19T06:20:39;100893.94;;;18.19;56.18
37298;BME280;30517;51.932;4.278;2023-09-19T06:23:44;100809.31;;;17.66;56.84
37298;BME280;30517;51.932;4.278;2023-09-19T06:26:45;100832.22;;;17.73;56.93
37298;BME280;30517;51.932;4.278;2023-09-19T06:29:46;100819.81;;;17.72;57.06
37298;BME280;30517;51.932;4.278;2023-09-19T06:32:46;100824.06;;;17.78;56.70
37298;BME280;30517;51.932;4.278;2023-09-19T06:35:48;100886.38;;;18.05;57.02
37298;BME280;30517;51.932;4.278;2023-09-19T06:38:49;100886.38;;;18.05;56.87
37298;BME280;30517;51.932;4.278;2023-09-19T06:41:52;100906.44;;;18.17;56.51
37298;BME280;30517;51.932;4.278;2023-09-19T06:44:55;100730.63;;;17.26;56.57
37298;BME280;30517;51.932;4.278;2023-09-19T06:47:56;100892.38;;;18.11;56.80
37298;BME280;30517;51.932;4.278;2023-09-19T06:50:57;100757.03;;;17.34;56.90
37298;BME280;30517;51.932;4.278;2023-09-19T06:54:02;100859.28;;;17.90;56.72
37298;BME280;30517;51.932;4.278;2023-09-19T06:57:05;100890.13;;;17.99;56.89
37298;BME280;30517;51.932;4.278;2023-09-19T07:00:10;100893.09;;;18.17;56.70
37298;BME280;30517;51.932;4.278;2023-09-19T07:03:18;100903.38;;;18.29;56.25
37298;BME280;30517;51.932;4.278;2023-09-19T07:06:21;100895.22;;;18.07;57.03
37298;BME280;30517;51.932;4.278;2023-09-19T07:09:22;100874.66;;;17.82;57.17
37298;BME280;30517;51.932;4.278;2023-09-19T07:12:23;100891.59;;;18.08;57.11
37298;BME280;30517;51.932;4.278;2023-09-19T07:15:28;100878.31;;;18.06;57.04
37298;BME280;30517;51.932;4.278;2023-09-19T07:18:30;100812.16;;;17.61;57.15
37298;BME280;30517;51.932;4.278;2023-09-19T07:21:31;100887.75;;;18.17;57.25
37298;BME280;30517;51.932;4.278;2023-09-19T07:24:33;100875.47;;;18.12;56.92
37298;BME280;30517;51.932;4.278;2023-09-19T07:27:33;100883.28;;;17.90;57.47
37298;BME280;30517;51.932;4.278;2023-09-19T07:30:36;100876.97;;;17.93;57.38
37298;BME280;30517;51.932;4.278;2023-09-19T07:33:37;100760.91;;;17.23;57.43
37298;BME280;30517;51.932;4.278;2023-09-19T07:36:38;100824.75;;;17.56;57.76
37298;BME280;30517;51.932;4.278;2023-09-19T07:39:40;100896.19;;;18.04;57.48
37298;BME280;30517;51.932;4.278;2023-09-19T07:42:41;100894.66;;;17.96;57.69
37298;BME280;30517;51.932;4.278;2023-09-19T07:45:44;100897.25;;;17.99;57.88
37298;BME280;30517;51.932;4.278;2023-09-19T07:48:45;100872.00;;;17.82;57.87
37298;BME280;30517;51.932;4.278;2023-09-19T07:51:48;100879.47;;;17.98;57.93
37298;BME280;30517;51.932;4.278;2023-09-19T07:54:49;100892.34;;;18.13;57.16
37298;BME280;30517;51.932;4.278;2023-09-19T07:57:50;100864.84;;;17.83;57.79
37298;BME280;30517;51.932;4.278;2023-09-19T08:00:52;100890.06;;;18.01;57.66
37298;BME280;30517;51.932;4.278;2023-09-19T08:03:53;100836.88;;;17.66;57.59
37298;BME280;30517;51.932;4.278;2023-09-19T08:06:53;100789.31;;;17.53;57.63
37298;BME280;30517;51.932;4.278;2023-09-19T08:09:56;100889.19;;;18.00;57.79
37298;BME280;30517;51.932;4.278;2023-09-19T08:12:58;100870.28;;;18.06;57.81
37298;BME280;30517;51.932;4.278;2023-09-19T08:15:59;100831.06;;;17.82;57.64
37298;BME280;30517;51.932;4.278;2023-09-19T08:19:00;100816.06;;;17.78;57.72
37298;BME280;30517;51.932;4.278;2023-09-19T08:22:01;100812.09;;;17.63;57.75
37298;BME280;30517;51.932;4.278;2023-09-19T08:25:03;100860.19;;;17.89;58.06
37298;BME280;30517;51.932;4.278;2023-09-19T08:28:05;100848.75;;;17.86;57.87
37298;BME280;30517;51.932;4.278;2023-09-19T08:31:09;100804.88;;;17.66;58.11
37298;BME280;30517;51.932;4.278;2023-09-19T08:34:10;100866.81;;;18.04;57.87
37298;BME280;30517;51.932;4.278;2023-09-19T08:37:11;100878.41;;;18.03;58.20
37298;BME280;30517;51.932;4.278;2023-09-19T08:40:12;100825.66;;;17.85;57.86
37298;BME280;30517;51.932;4.278;2023-09-19T08:43:13;100818.41;;;17.88;57.71
37298;BME280;30517;51.932;4.278;2023-09-19T08:46:18;100864.06;;;18.07;57.97
37298;BME280;30517;51.932;4.278;2023-09-19T08:53:01;100807.56;;;17.65;58.00
37298;BME280;30517;51.932;4.278;2023-09-19T08:56:10;100858.03;;;18.01;58.10
37298;BME280;30517;51.932;4.278;2023-09-19T08:59:11;100865.66;;;18.13;58.06
37298;BME280;30517;51.932;4.278;2023-09-19T09:02:14;100849.72;;;18.10;57.64
37298;BME280;30517;51.932;4.278;2023-09-19T09:05:16;100866.75;;;18.06;57.93
37298;BME280;30517;51.932;4.278;2023-09-19T09:08:22;100853.59;;;18.01;58.06
37298;BME280;30517;51.932;4.278;2023-09-19T09:11:23;100704.97;;;17.22;57.62
37298;BME280;30517;51.932;4.278;2023-09-19T09:14:28;100880.44;;;18.23;58.05
37298;BME280;30517;51.932;4.278;2023-09-19T09:17:30;100835.81;;;18.00;57.87
37298;BME280;30517;51.932;4.278;2023-09-19T09:20:30;100756.88;;;17.66;58.02
37298;BME280;30517;51.932;4.278;2023-09-19T09:23:32;100862.28;;;18.33;57.71
37298;BME280;30517;51.932;4.278;2023-09-19T09:26:41;100527.91;;;16.20;58.14
37298;BME280;30517;51.932;4.278;2023-09-19T09:29:48;100822.78;;;17.91;58.32
37298;BME280;30517;51.932;4.278;2023-09-19T09:33:08;100850.50;;;18.13;58.33
37298;BME280;30517;51.932;4.278;2023-09-19T09:36:11;100858.81;;;18.31;58.29
37298;BME280;30517;51.932;4.278;2023-09-19T09:39:13;100851.81;;;18.27;58.30
37298;BME280;30517;51.932;4.278;2023-09-19T09:42:35;100860.78;;;18.26;58.63
37298;BME280;30517;51.932;4.278;2023-09-19T09:45:39;100864.06;;;18.34;58.46
37298;BME280;30517;51.932;4.278;2023-09-19T09:48:57;100854.16;;;18.36;58.41
37298;BME280;30517;51.932;4.278;2023-09-19T09:52:16;100814.78;;;18.18;58.12
37298;BME280;30517;51.932;4.278;2023-09-19T09:55:18;100854.88;;;18.41;58.30
37298;BME280;30517;51.932;4.278;2023-09-19T09:58:20;100841.53;;;18.41;58.29
37298;BME280;30517;51.932;4.278;2023-09-19T10:01:25;100843.19;;;18.45;58.49
37298;BME280;30517;51.932;4.278;2023-09-19T10:04:29;100858.84;;;18.56;57.86
37298;BME280;30517;51.932;4.278;2023-09-19T10:07:36;100843.53;;;18.61;57.83
37298;BME280;30517;51.932;4.278;2023-09-19T10:10:49;100785.94;;;18.27;58.04
37298;BME280;30517;51.932;4.278;2023-09-19T10:14:05;100849.84;;;18.58;57.99
37298;BME280;30517;51.932;4.278;2023-09-19T10:17:13;100806.03;;;18.39;58.35
37298;BME280;30517;51.932;4.278;2023-09-19T10:20:17;100797.81;;;18.44;57.89
37298;BME280;30517;51.932;4.278;2023-09-19T10:23:36;100811.13;;;18.70;57.85
37298;BME280;30517;51.932;4.278;2023-09-19T10:26:38;100789.22;;;18.61;57.27
37298;BME280;30517;51.932;4.278;2023-09-19T10:29:44;100830.19;;;18.86;57.24
37298;BME280;30517;51.932;4.278;2023-09-19T10:32:45;100834.56;;;18.87;57.29
37298;BME280;30517;51.932;4.278;2023-09-19T10:35:49;100793.78;;;18.82;56.66
37298;BME280;30517;51.932;4.278;2023-09-19T10:38:56;100789.72;;;18.95;56.58
37298;BME280;30517;51.932;4.278;2023-09-19T10:42:02;100815.88;;;18.87;56.79
37298;BME280;30517;51.932;4.278;2023-09-19T10:45:06;100809.84;;;19.06;56.62
37298;BME280;30517;51.932;4.278;2023-09-19T10:48:13;100792.06;;;19.05;56.61
37298;BME280;30517;51.932;4.278;2023-09-19T10:51:20;100702.50;;;18.46;56.66
37298;BME280;30517;51.932;4.278;2023-09-19T10:54:27;100694.53;;;18.44;56.59
37298;BME280;30517;51.932;4.278;2023-09-19T10:57:30;100698.41;;;18.61;56.49
37298;BME280;30517;51.932;4.278;2023-09-19T11:00:50;100788.03;;;19.16;57.19
37298;BME280;30517;51.932;4.278;2023-09-19T11:04:30;100793.13;;;19.22;56.75
37298;BME280;30517;51.932;4.278;2023-09-19T11:07:57;100801.00;;;19.27;56.51
37298;BME280;30517;51.932;4.278;2023-09-19T11:14:43;100704.13;;;18.75;57.02
37298;BME280;30517;51.932;4.278;2023-09-19T11:17:45;100805.31;;;19.31;56.63
37298;BME280;30517;51.932;4.278;2023-09-19T11:20:46;100789.25;;;19.31;56.79
37298;BME280;30517;51.932;4.278;2023-09-19T11:27:13;100762.50;;;19.31;56.52
37298;BME280;30517;51.932;4.278;2023-09-19T11:30:26;100757.94;;;19.33;56.59
37298;BME280;30517;51.932;4.278;2023-09-19T11:33:31;100749.75;;;19.16;56.69
37298;BME280;30517;51.932;4.278;2023-09-19T11:36:38;100759.88;;;19.30;56.66
37298;BME280;30517;51.932;4.278;2023-09-19T11:40:05;100731.59;;;19.24;56.43
37298;BME280;30517;51.932;4.278;2023-09-19T11:43:27;100779.59;;;19.49;56.55
37298;BME280;30517;51.932;4.278;2023-09-19T11:49:52;100760.72;;;19.54;56.73
37298;BME280;30517;51.932;4.278;2023-09-19T11:52:53;100741.13;;;19.31;56.52
37298;BME280;30517;51.932;4.278;2023-09-19T11:55:55;100764.06;;;19.59;56.71
37298;BME280;30517;51.932;4.278;2023-09-19T11:58:56;100792.38;;;19.64;56.72
37298;BME280;30517;51.932;4.278;2023-09-19T12:02:04;100725.88;;;19.55;56.17
37298;BME280;30517;51.932;4.278;2023-09-19T12:05:07;100685.97;;;19.29;56.61
37298;BME280;30517;51.932;4.278;2023-09-19T12:08:09;100708.78;;;19.37;56.77
37298;BME280;30517;51.932;4.278;2023-09-19T12:11:16;100762.38;;;19.56;57.08
37298;BME280;30517;51.932;4.278;2023-09-19T12:14:25;100723.81;;;19.40;56.56
37298;BME280;30517;51.932;4.278;2023-09-19T12:17:36;100558.72;;;18.57;56.48
37298;BME280;30517;51.932;4.278;2023-09-19T12:20:44;100782.75;;;19.82;56.47
37298;BME280;30517;51.932;4.278;2023-09-19T12:27:05;100782.63;;;19.85;56.58
37298;BME280;30517;51.932;4.278;2023-09-19T12:30:07;100791.34;;;19.91;56.51
37298;BME280;30517;51.932;4.278;2023-09-19T12:33:18;100756.09;;;19.79;56.07
37298;BME280;30517;51.932;4.278;2023-09-19T12:36:25;100754.69;;;19.71;56.55
37298;BME280;30517;51.932;4.278;2023-09-19T12:39:30;100759.72;;;19.78;56.43
37298;BME280;30517;51.932;4.278;2023-09-19T12:42:31;100772.03;;;20.04;56.45
37298;BME280;30517;51.932;4.278;2023-09-19T12:45:35;100693.78;;;19.55;56.35
37298;BME280;30517;51.932;4.278;2023-09-19T12:48:39;100750.09;;;19.95;56.33
37298;BME280;30517;51.932;4.278;2023-09-19T12:51:45;100791.16;;;20.16;56.26
37298;BME280;30517;51.932;4.278;2023-09-19T12:54:47;100724.78;;;19.81;55.92
37298;BME280;30517;51.932;4.278;2023-09-19T13:01:14;100760.38;;;20.26;55.77
37298;BME280;30517;51.932;4.278;2023-09-19T13:04:17;100772.69;;;20.30;55.82
37298;BME280;30517;51.932;4.278;2023-09-19T13:07:44;100786.16;;;20.28;55.87
37298;BME280;30517;51.932;4.278;2023-09-19T13:11:01;100767.75;;;20.21;55.87
37298;BME280;30517;51.932;4.278;2023-09-19T13:14:22;100755.06;;;20.24;55.77
37298;BME280;30517;51.932;4.278;2023-09-19T13:17:24;100770.63;;;20.37;55.92
37298;BME280;30517;51.932;4.278;2023-09-19T13:20:26;100755.75;;;20.29;55.76
37298;BME280;30517;51.932;4.278;2023-09-19T13:23:32;100753.34;;;20.23;56.01
37298;BME280;30517;51.932;4.278;2023-09-19T13:26:33;100789.53;;;20.11;56.89
37298;BME280;30517;51.932;4.278;2023-09-19T13:29:34;100769.63;;;19.09;60.40
37298;BME280;30517;51.932;4.278;2023-09-19T13:32:35;100761.44;;;18.90;61.00
37298;BME280;30517;51.932;4.278;2023-09-19T13:35:39;100785.59;;;19.34;59.96
37298;BME280;30517;51.932;4.278;2023-09-19T13:38:42;100745.72;;;19.94;57.24
37298;BME280;30517;51.932;4.278;2023-09-19T13:41:44;100772.69;;;20.30;56.65
37298;BME280;30517;51.932;4.278;2023-09-19T13:44:46;100774.06;;;20.39;56.30
37298;BME280;30517;51.932;4.278;2023-09-19T13:47:47;100731.13;;;20.21;56.23
37298;BME280;30517;51.932;4.278;2023-09-19T13:50:48;100701.66;;;20.01;56.08
37298;BME280;30517;51.932;4.278;2023-09-19T13:53:49;100776.22;;;20.30;56.06
37298;BME280;30517;51.932;4.278;2023-09-19T13:56:50;100803.31;;;20.45;56.14
37298;BME280;30517;51.932;4.278;2023-09-19T13:59:52;100803.34;;;20.43;56.25
37298;BME280;30517;51.932;4.278;2023-09-19T14:02:54;100776.91;;;20.36;56.14
37298;BME280;30517;51.932;4.278;2023-09-19T14:05:56;100715.41;;;19.71;57.69
37298;BME280;30517;51.932;4.278;2023-09-19T14:08:56;100779.66;;;20.34;57.05
37298;BME280;30517;51.932;4.278;2023-09-19T14:11:57;100777.66;;;20.39;57.04
37298;BME280;30517;51.932;4.278;2023-09-19T14:14:58;100722.69;;;20.10;56.91
37298;BME280;30517;51.932;4.278;2023-09-19T14:17:59;100772.69;;;20.09;58.96
37298;BME280;30517;51.932;4.278;2023-09-19T14:21:04;100776.16;;;20.32;57.86
37298;BME280;30517;51.932;4.278;2023-09-19T14:24:06;100746.19;;;20.24;57.67
37298;BME280;30517;51.932;4.278;2023-09-19T14:27:13;100782.00;;;20.42;57.34
37298;BME280;30517;51.932;4.278;2023-09-19T14:30:14;100702.41;;;20.04;57.25
37298;BME280;30517;51.932;4.278;2023-09-19T14:33:14;100744.75;;;20.36;57.19
37298;BME280;30517;51.932;4.278;2023-09-19T14:36:15;100769.38;;;20.44;57.19
37298;BME280;30517;51.932;4.278;2023-09-19T14:39:17;100775.66;;;20.44;57.36
37298;BME280;30517;51.932;4.278;2023-09-19T14:42:20;100743.31;;;20.28;57.26
37298;BME280;30517;51.932;4.278;2023-09-19T14:45:21;100683.59;;;19.85;57.17
37298;BME280;30517;51.932;4.278;2023-09-19T14:48:22;100785.34;;;20.47;57.43
37298;BME280;30517;51.932;4.278;2023-09-19T14:51:25;100663.38;;;19.78;57.26
37298;BME280;30517;51.932;4.278;2023-09-19T14:54:26;100743.56;;;20.22;57.22
37298;BME280;30517;51.932;4.278;2023-09-19T14:57:29;100762.56;;;20.16;58.30
37298;BME280;30517;51.932;4.278;2023-09-19T15:00:30;100683.66;;;19.84;57.66
37298;BME280;30517;51.932;4.278;2023-09-19T15:03:33;100765.94;;;20.42;57.33
37298;BME280;30517;51.932;4.278;2023-09-19T15:06:37;100760.56;;;20.42;57.41
37298;BME280;30517;51.932;4.278;2023-09-19T15:09:38;100686.25;;;20.06;56.93
37298;BME280;30517;51.932;4.278;2023-09-19T15:12:39;100772.97;;;20.24;56.95
37298;BME280;30517;51.932;4.278;2023-09-19T15:15:39;100759.38;;;20.28;57.20
37298;BME280;30517;51.932;4.278;2023-09-19T15:18:44;100699.66;;;19.85;57.14
37298;BME280;30517;51.932;4.278;2023-09-19T15:21:48;100790.03;;;20.42;57.11
37298;BME280;30517;51.932;4.278;2023-09-19T15:24:50;100797.28;;;20.40;57.71
37298;BME280;30517;51.932;4.278;2023-09-19T15:27:51;100811.53;;;20.40;57.34
37298;BME280;30517;51.932;4.278;2023-09-19T15:31:06;100761.66;;;20.17;57.60
37298;BME280;30517;51.932;4.278;2023-09-19T15:34:09;100756.31;;;20.17;57.45
37298;BME280;30517;51.932;4.278;2023-09-19T15:37:10;100757.09;;;20.19;57.72
37298;BME280;30517;51.932;4.278;2023-09-19T15:40:11;100662.41;;;19.59;57.62
37298;BME280;30517;51.932;4.278;2023-09-19T15:43:12;100747.59;;;20.12;57.69
37298;BME280;30517;51.932;4.278;2023-09-19T15:46:14;100745.03;;;20.09;57.61
37298;BME280;30517;51.932;4.278;2023-09-19T15:49:15;100781.25;;;20.38;57.48
37298;BME280;30517;51.932;4.278;2023-09-19T15:52:17;100751.66;;;20.21;57.52
37298;BME280;30517;51.932;4.278;2023-09-19T15:55:18;100693.63;;;19.80;57.59
37298;BME280;30517;51.932;4.278;2023-09-19T15:58:19;100756.16;;;20.20;57.87
37298;BME280;30517;51.932;4.278;2023-09-19T16:01:21;100720.34;;;20.02;57.40
37298;BME280;30517;51.932;4.278;2023-09-19T16:04:21;100757.63;;;20.27;57.54
37298;BME280;30517;51.932;4.278;2023-09-19T16:07:22;100780.53;;;20.34;57.54
37298;BME280;30517;51.932;4.278;2023-09-19T16:10:24;100673.50;;;19.72;57.58
37298;BME280;30517;51.932;4.278;2023-09-19T16:13:24;100492.50;;;18.65;57.42
37298;BME280;30517;51.932;4.278;2023-09-19T16:16:27;100754.25;;;20.22;57.83
37298;BME280;30517;51.932;4.278;2023-09-19T16:19:30;100773.53;;;20.30;57.51
37298;BME280;30517;51.932;4.278;2023-09-19T16:22:30;100786.03;;;20.31;57.38
37298;BME280;30517;51.932;4.278;2023-09-19T16:25:31;100696.97;;;19.85;57.40
37298;BME280;30517;51.932;4.278;2023-09-19T16:28:33;100773.53;;;20.30;57.49